createdAt,value
2022-12-25T12:02:05.297Z,0.90
2022-12-25T12:04:43.108Z,1.00
2022-12-25T12:07:19.102Z,1.10
2022-12-25T12:09:56.392Z,1.10
2022-12-25T12:13:23.659Z,1.20
2022-12-25T12:15:58.710Z,0.70
2022-12-25T12:18:28.170Z,0.90
2022-12-25T12:21:04.770Z,1.00
2022-12-25T12:24:16.338Z,1.10
2022-12-25T12:26:46.512Z,1.10
2022-12-25T12:29:29.657Z,1.30
2022-12-25T12:32:03.540Z,1.10
2022-12-25T12:34:40.826Z,1.60
2022-12-25T12:38:03.594Z,1.70
2022-12-25T12:41:03.382Z,1.00
2022-12-25T12:43:37.477Z,1.10
2022-12-25T12:46:32.277Z,0.90
2022-12-25T12:49:35.036Z,1.30
2022-12-25T12:52:25.226Z,1.10
2022-12-25T12:55:14.997Z,1.10
2022-12-25T12:58:02.806Z,1.40
2022-12-25T13:00:55.841Z,1.20
2022-12-25T13:03:56.214Z,1.50
2022-12-25T13:06:42.321Z,1.20
2022-12-25T13:09:30.280Z,1.20
2022-12-25T13:14:40.102Z,1.20
2022-12-25T13:17:10.385Z,1.00
2022-12-25T13:19:44.873Z,1.40
2022-12-25T13:22:32.087Z,1.00
2022-12-25T13:25:19.410Z,1.00
2022-12-25T13:27:57.929Z,1.60
2022-12-25T13:30:29.402Z,1.40
2022-12-25T13:33:00.233Z,1.70
2022-12-25T13:35:28.479Z,1.60
2022-12-25T13:37:56.754Z,1.20
2022-12-25T13:43:03.064Z,1.80
2022-12-25T13:45:31.727Z,1.70
2022-12-25T13:48:20.126Z,1.60
2022-12-25T13:51:01.395Z,1.90
2022-12-25T13:53:30.931Z,1.80
2022-12-25T13:56:10.079Z,2.00
2022-12-25T13:58:40.799Z,1.80
2022-12-25T14:01:13.476Z,2.10
2022-12-25T14:03:46.183Z,1.70
2022-12-25T14:06:26.981Z,1.80
2022-12-25T14:08:58.361Z,2.00
2022-12-25T14:11:30.728Z,1.70
2022-12-25T14:14:02.648Z,2.00
2022-12-25T14:16:34.393Z,1.60
2022-12-25T14:19:06.212Z,1.90
2022-12-25T14:21:50.326Z,1.80
2022-12-25T14:24:22.114Z,1.90
2022-12-25T14:27:06.279Z,1.90
2022-12-25T14:29:55.445Z,2.00
2022-12-25T14:32:26.781Z,2.00
2022-12-25T14:35:01.866Z,2.40
2022-12-25T14:37:38.417Z,2.00
2022-12-25T14:40:23.904Z,2.00
2022-12-25T14:43:00.737Z,2.70
2022-12-25T14:45:38.939Z,2.60
2022-12-25T14:48:25.266Z,2.80
2022-12-25T14:51:15.145Z,3.00
2022-12-25T14:53:49.136Z,3.00
2022-12-25T14:56:22.330Z,2.60
2022-12-25T14:58:59.129Z,2.50
2022-12-25T15:01:36.738Z,2.50
2022-12-25T15:04:10.951Z,2.40
2022-12-25T15:07:09.793Z,2.10
2022-12-25T15:09:40.400Z,2.40
2022-12-25T15:12:10.042Z,2.20
2022-12-25T15:14:41.434Z,2.40
2022-12-25T15:17:35.239Z,5.50
2022-12-25T15:23:19.282Z,4.90
2022-12-25T15:25:54.949Z,4.30
2022-12-25T15:28:47.362Z,4.40
2022-12-25T15:31:43.028Z,4.40
2022-12-25T15:34:56.783Z,5.10
2022-12-25T15:40:29.713Z,5.50
2022-12-25T15:43:11.433Z,5.40
2022-12-25T15:45:51.791Z,5.00
2022-12-25T15:48:21.979Z,5.30
2022-12-25T15:50:57.051Z,5.50
2022-12-25T15:53:27.125Z,5.80
2022-12-25T15:55:55.915Z,5.00
2022-12-25T15:58:27.056Z,5.50
2022-12-25T16:01:00.834Z,5.00
2022-12-25T16:03:37.020Z,5.30
2022-12-25T16:06:19.322Z,5.70
2022-12-25T16:08:50.809Z,5.70
2022-12-25T16:11:26.914Z,4.10
2022-12-25T16:14:30.583Z,3.40
2022-12-25T16:18:10.357Z,3.80
2022-12-25T16:20:24.569Z,4.00
2022-12-25T16:23:15.671Z,4.70
2022-12-25T16:25:57.251Z,4.10
2022-12-25T16:28:30.106Z,3.60
2022-12-25T16:31:11.562Z,4.10
2022-12-25T16:34:08.818Z,4.40
2022-12-25T16:37:27.939Z,4.60
2022-12-25T16:39:56.370Z,5.20
2022-12-25T16:42:43.432Z,8.40
2022-12-25T16:45:22.896Z,8.80
2022-12-25T16:51:22.365Z,10.20
2022-12-25T16:54:20.220Z,9.90
2022-12-25T16:57:06.551Z,9.40
2022-12-25T17:02:49.821Z,9.30
2022-12-25T17:05:23.533Z,9.00
2022-12-25T17:08:06.058Z,10.20
2022-12-25T17:10:51.157Z,13.60
2022-12-25T17:13:48.538Z,14.80
2022-12-25T17:16:26.220Z,16.10
2022-12-25T17:19:16.127Z,13.90
2022-12-25T17:22:20.763Z,14.30
2022-12-25T17:25:17.700Z,14.40
2022-12-25T17:27:52.843Z,14.90
2022-12-25T17:30:25.080Z,14.30
2022-12-25T17:33:09.032Z,15.60
2022-12-25T17:35:43.264Z,14.00
2022-12-25T17:38:37.468Z,13.30
2022-12-25T17:41:09.410Z,14.80
2022-12-25T17:43:45.900Z,15.70
2022-12-25T17:46:34.657Z,16.80
2022-12-25T17:49:05.640Z,16.20
2022-12-25T17:51:38.829Z,17.20
2022-12-25T17:54:44.243Z,14.60
2022-12-25T17:57:30.868Z,16.60
2022-12-25T18:00:09.206Z,16.70
2022-12-25T18:02:40.781Z,16.60
2022-12-25T18:11:34.157Z,20.00
2022-12-25T18:14:07.765Z,22.20
2022-12-25T18:16:58.937Z,21.90
2022-12-25T18:19:56.042Z,18.30
2022-12-25T18:22:46.910Z,19.90
2022-12-25T18:25:33.939Z,20.30
2022-12-25T18:28:03.303Z,22.50
2022-12-25T18:30:33.389Z,23.20
2022-12-25T18:33:02.867Z,22.00
2022-12-25T18:35:41.472Z,24.60
2022-12-25T18:40:48.539Z,25.50
2022-12-25T18:43:16.819Z,27.50
2022-12-25T18:46:00.631Z,31.60
2022-12-25T18:48:33.647Z,32.90
2022-12-25T18:51:21.167Z,35.00
2022-12-25T18:54:07.632Z,36.60
2022-12-25T18:56:38.567Z,36.90
2022-12-25T18:59:06.703Z,37.00
2022-12-25T19:01:43.914Z,36.30
2022-12-25T19:06:55.553Z,35.90
2022-12-25T19:09:43.803Z,39.40
2022-12-25T19:12:25.153Z,38.10
2022-12-25T19:14:53.422Z,36.20
2022-12-25T19:17:31.756Z,35.50
2022-12-25T19:20:02.257Z,36.10
2022-12-25T19:22:30.581Z,37.80
2022-12-25T19:25:03.020Z,37.70
2022-12-25T19:28:07.567Z,38.80
2022-12-25T19:30:48.586Z,38.40
2022-12-25T19:33:19.119Z,35.30
2022-12-25T19:35:50.139Z,36.20
2022-12-25T19:38:20.426Z,39.00
2022-12-25T19:43:58.355Z,42.00
2022-12-25T19:46:38.631Z,42.10
2022-12-25T19:49:13.487Z,44.20
2022-12-25T19:51:52.294Z,43.80
2022-12-25T19:54:26.827Z,38.70
2022-12-25T19:57:20.957Z,35.50
2022-12-25T19:59:57.452Z,36.20
2022-12-25T20:02:45.253Z,34.30
2022-12-25T20:05:31.824Z,34.00
2022-12-25T20:08:03.771Z,38.70
2022-12-25T20:10:32.123Z,38.90
2022-12-25T20:13:07.033Z,38.30
2022-12-25T20:15:35.417Z,38.80
2022-12-25T20:18:14.132Z,38.20
2022-12-25T20:20:43.108Z,36.60
2022-12-25T20:23:18.150Z,37.00
2022-12-25T20:25:48.579Z,34.60
2022-12-25T20:28:26.053Z,34.00
2022-12-25T20:31:50.727Z,31.10
2022-12-25T20:34:36.786Z,29.70
2022-12-25T20:37:09.241Z,28.10
2022-12-25T20:39:40.491Z,29.40
2022-12-25T20:42:17.798Z,29.30
2022-12-25T20:44:58.389Z,28.60
2022-12-25T20:47:33.597Z,30.40
2022-12-25T20:50:32.226Z,32.90
2022-12-25T20:53:18.352Z,28.80
2022-12-25T20:55:57.451Z,31.90
2022-12-25T20:58:27.705Z,32.90
2022-12-25T21:01:07.369Z,32.10
2022-12-25T21:03:41.213Z,32.70
2022-12-25T21:06:28.979Z,30.80
2022-12-25T21:09:04.947Z,28.90
2022-12-25T21:11:43.685Z,9.00
2022-12-25T21:14:24.852Z,28.70
2022-12-25T21:17:01.708Z,27.70
2022-12-25T21:19:41.771Z,30.30
2022-12-25T21:22:14.346Z,31.70
2022-12-25T21:24:48.218Z,32.10
2022-12-25T21:27:27.795Z,31.90
2022-12-25T21:33:07.402Z,19.30
2022-12-25T21:35:38.445Z,36.00
2022-12-25T21:38:34.548Z,34.40
2022-12-25T21:41:12.854Z,35.70
2022-12-25T21:43:46.226Z,35.50
2022-12-25T21:46:18.869Z,35.70
2022-12-25T21:48:52.998Z,37.00
2022-12-25T21:51:46.594Z,34.80
2022-12-25T21:54:38.216Z,20.60
2022-12-25T21:57:15.311Z,36.30
2022-12-25T21:59:48.028Z,35.60
2022-12-25T22:02:17.355Z,22.90
2022-12-25T22:04:47.016Z,41.10
2022-12-25T22:07:17.386Z,40.00
2022-12-25T22:09:48.811Z,24.40
2022-12-25T22:12:39.200Z,38.10
2022-12-25T22:15:09.955Z,35.60
2022-12-25T22:18:03.898Z,34.60
2022-12-25T22:20:36.872Z,20.60
2022-12-25T22:23:06.872Z,31.40
2022-12-25T22:25:34.975Z,18.80
2022-12-25T22:28:03.120Z,30.20
2022-12-25T22:30:32.126Z,18.70
2022-12-25T22:33:00.176Z,29.00
2022-12-25T22:35:28.379Z,15.80
2022-12-25T22:37:56.575Z,27.20
2022-12-25T22:40:45.100Z,16.00
2022-12-25T22:43:43.612Z,25.80
2022-12-25T22:46:23.044Z,15.30
2022-12-25T22:48:51.238Z,24.40
2022-12-25T22:51:19.256Z,26.10
2022-12-25T22:54:03.278Z,16.50
2022-12-25T22:56:36.306Z,14.60
2022-12-25T23:01:33.059Z,16.70
2022-12-25T23:04:07.300Z,27.40
2022-12-25T23:06:39.063Z,28.20
2022-12-25T23:09:11.971Z,26.60
2022-12-25T23:11:40.185Z,26.80
2022-12-25T23:14:28.167Z,26.20
2022-12-25T23:16:56.577Z,25.40
2022-12-25T23:19:44.676Z,24.60
2022-12-25T23:22:41.380Z,24.10
2022-12-25T23:25:36.186Z,24.70
2022-12-25T23:28:43.644Z,15.10
2022-12-25T23:31:11.864Z,26.20
2022-12-25T23:33:40.037Z,26.50
2022-12-25T23:36:08.252Z,16.30
2022-12-25T23:38:36.292Z,15.50
2022-12-25T23:41:04.478Z,25.10
2022-12-25T23:43:32.601Z,14.00
2022-12-25T23:46:02.235Z,16.80
2022-12-25T23:48:30.564Z,26.30
2022-12-25T23:51:03.886Z,27.40
2022-12-25T23:53:35.123Z,15.20
2022-12-25T23:56:03.996Z,26.70
2022-12-25T23:58:40.501Z,16.30
